Time;durP1;ratioP1;P1;durP2;ratioP2;P2;SDS_P1;SDS_P2;PMS_P1;PMS_P2;Temp;Humidity;BMP_temperature;BMP_pressure;BME280_temperature;BME280_humidity;BME280_pressure;Samples;Min_cycle;Max_cycle;Signal;HPM_P1;HPM_P2
2023/03/10 00:01:25;;;;;;;13.48;6.55;;;;;;;;;;6185449;23;19997;-74
2023/03/10 00:03:51;;;;;;;14.85;6.75;;;;;;;;;;6185222;23;20013;-74
2023/03/10 00:06:18;;;;;;;15.77;7.13;;;;;;;;;;6185372;23;20858;-74
2023/03/10 00:08:44;;;;;;;14.80;7.45;;;;;;;;;;6185421;23;20028;-74
2023/03/10 00:11:10;;;;;;;15.90;7.07;;;;;;;;;;6185652;23;20055;-74
2023/03/10 00:13:36;;;;;;;12.10;5.97;;;;;;;;;;6185340;23;20001;-74
2023/03/10 00:16:02;;;;;;;14.57;6.78;;;;;;;;;;6185178;23;20001;-74
2023/03/10 00:18:28;;;;;;;13.30;6.63;;;;;;;;;;6158853;23;19997;-74
2023/03/10 00:20:55;;;;;;;10.45;5.85;;;;;;;;;;6185613;23;20005;-74
2023/03/10 00:23:21;;;;;;;14.05;6.55;;;;;;;;;;6185068;23;20001;-74
2023/03/10 00:26:00;;;;;;;13.05;5.95;;;;;;;;;;6185188;23;20388;-74
2023/03/10 00:28:26;;;;;;;14.48;6.70;;;;;;;;;;6185192;23;20009;-74
2023/03/10 00:30:56;;;;;;;12.15;6.47;;;;;;;;;;6185209;23;20001;-74
2023/03/10 00:33:22;;;;;;;14.43;6.97;;;;;;;;;;6184986;23;20097;-74
2023/03/10 00:35:48;;;;;;;14.93;7.78;;;;;;;;;;6185090;23;20000;-74
2023/03/10 00:38:14;;;;;;;14.02;6.88;;;;;;;;;;6185212;23;20001;-74
2023/03/10 00:40:40;;;;;;;17.05;8.00;;;;;;;;;;6185077;23;20479;-74
2023/03/10 00:43:06;;;;;;;10.68;4.75;;;;;;;;;;6184850;23;20005;-74
2023/03/10 00:45:34;;;;;;;14.88;6.07;;;;;;;;;;6184952;23;20127;-74
2023/03/10 00:48:00;;;;;;;14.60;6.80;;;;;;;;;;6185089;23;19993;-74
2023/03/10 00:50:26;;;;;;;9.88;5.13;;;;;;;;;;6185481;23;20005;-75
2023/03/10 00:52:52;;;;;;;12.80;6.57;;;;;;;;;;6184996;23;19997;-74
2023/03/10 00:55:20;;;;;;;15.18;7.50;;;;;;;;;;6185243;23;20025;-74
2023/03/10 00:57:46;;;;;;;12.85;6.38;;;;;;;;;;6173934;23;20024;-74
2023/03/10 01:00:14;;;;;;;14.75;6.78;;;;;;;;;;6184920;23;20094;-74
2023/03/10 01:02:40;;;;;;;11.48;6.13;;;;;;;;;;6185170;23;20028;-74
2023/03/10 01:05:06;;;;;;;13.18;6.70;;;;;;;;;;6184921;23;20001;-74
2023/03/10 01:07:32;;;;;;;13.60;6.72;;;;;;;;;;6184975;23;20001;-74
2023/03/10 01:09:58;;;;;;;12.30;6.32;;;;;;;;;;6185057;23;20005;-74
2023/03/10 01:12:24;;;;;;;11.15;6.00;;;;;;;;;;6184824;23;20005;-74
2023/03/10 01:14:50;;;;;;;11.50;6.10;;;;;;;;;;6184877;23;20029;-74
2023/03/10 01:17:16;;;;;;;13.52;7.00;;;;;;;;;;6184806;23;20420;-74
2023/03/10 01:19:42;;;;;;;15.05;6.30;;;;;;;;;;6183754;23;20012;-74
2023/03/10 01:22:08;;;;;;;10.43;5.65;;;;;;;;;;6188233;23;20088;-74
2023/03/10 01:24:34;;;;;;;14.82;7.03;;;;;;;;;;6188288;23;20008;-74
2023/03/10 01:27:00;;;;;;;11.88;5.55;;;;;;;;;;6188232;23;19997;-74
2023/03/10 01:29:26;;;;;;;14.05;8.00;;;;;;;;;;6188226;23;20640;-74
2023/03/10 01:31:52;;;;;;;14.50;6.57;;;;;;;;;;6188106;23;20001;-74
2023/03/10 01:34:18;;;;;;;15.35;8.48;;;;;;;;;;6187961;23;20009;-75
2023/03/10 01:36:44;;;;;;;17.33;8.02;;;;;;;;;;6187746;23;19997;-75
2023/03/10 01:39:10;;;;;;;18.75;8.38;;;;;;;;;;6187999;23;19997;-75
2023/03/10 01:41:40;;;;;;;15.30;6.80;;;;;;;;;;6187962;23;20387;-75
2023/03/10 01:44:12;;;;;;;11.43;6.95;;;;;;;;;;6188131;23;20159;-75
2023/03/10 01:46:40;;;;;;;13.68;6.55;;;;;;;;;;6188148;23;20127;-75
2023/03/10 01:49:18;;;;;;;20.75;9.77;;;;;;;;;;6188126;23;20008;-75
2023/03/10 01:51:47;;;;;;;17.25;9.48;;;;;;;;;;6188110;23;20001;-75
2023/03/10 01:54:16;;;;;;;19.25;9.50;;;;;;;;;;6187995;23;20068;-75
2023/03/10 01:56:42;;;;;;;14.98;7.40;;;;;;;;;;6187784;23;20411;-75
2023/03/10 01:59:09;;;;;;;20.98;10.32;;;;;;;;;;6188066;23;20001;-75
2023/03/10 02:01:36;;;;;;;17.55;8.30;;;;;;;;;;6187765;23;19997;-74
2023/03/10 02:04:11;;;;;;;16.42;8.07;;;;;;;;;;6188085;23;20001;-75
2023/03/10 02:06:40;;;;;;;16.23;8.18;;;;;;;;;;6188009;23;20039;-75
2023/03/10 02:09:07;;;;;;;14.13;6.87;;;;;;;;;;6188392;23;20064;-75
2023/03/10 02:11:33;;;;;;;17.33;8.60;;;;;;;;;;6187894;23;20029;-75
2023/03/10 02:14:01;;;;;;;17.45;9.20;;;;;;;;;;6188269;23;20001;-75
2023/03/10 02:16:27;;;;;;;13.43;7.35;;;;;;;;;;6188185;23;20408;-75
2023/03/10 02:18:53;;;;;;;10.32;6.55;;;;;;;;;;6187893;23;20008;-75
2023/03/10 02:21:24;;;;;;;12.63;7.35;;;;;;;;;;6187915;23;20001;-75
2023/03/10 02:24:09;;;;;;;15.15;6.60;;;;;;;;;;6187778;23;20351;-75
2023/03/10 02:26:53;;;;;;;11.60;6.05;;;;;;;;;;6187925;23;20593;-75
2023/03/10 02:29:28;;;;;;;13.13;6.65;;;;;;;;;;6187885;23;20048;-75
2023/03/10 02:31:55;;;;;;;12.45;6.05;;;;;;;;;;6186833;23;20335;-75
2023/03/10 02:34:21;;;;;;;12.65;7.32;;;;;;;;;;6186121;23;20005;-75
2023/03/10 02:36:47;;;;;;;8.55;5.50;;;;;;;;;;6186387;23;20058;-75
2023/03/10 02:39:13;;;;;;;11.18;5.25;;;;;;;;;;6186470;23;19998;-75
2023/03/10 02:41:40;;;;;;;8.90;5.70;;;;;;;;;;6186209;23;20371;-75
2023/03/10 02:44:07;;;;;;;8.75;4.70;;;;;;;;;;6186288;23;20028;-75
2023/03/10 02:46:33;;;;;;;8.57;4.85;;;;;;;;;;6186395;23;20525;-75
2023/03/10 02:49:00;;;;;;;10.52;6.68;;;;;;;;;;6186255;23;20005;-75
2023/03/10 02:51:29;;;;;;;11.80;6.13;;;;;;;;;;6186307;23;19997;-75
2023/03/10 02:53:55;;;;;;;10.55;4.95;;;;;;;;;;6186159;23;20028;-75
2023/03/10 02:56:21;;;;;;;11.95;6.30;;;;;;;;;;6185910;23;20412;-75
2023/03/10 02:58:47;;;;;;;10.27;5.25;;;;;;;;;;6186267;23;20037;-75
2023/03/10 03:01:13;;;;;;;9.27;4.85;;;;;;;;;;6186165;23;19997;-75
2023/03/10 03:03:39;;;;;;;9.57;4.75;;;;;;;;;;6185956;23;20415;-75
2023/03/10 03:06:05;;;;;;;9.43;5.70;;;;;;;;;;6186087;23;20032;-75
2023/03/10 03:08:32;;;;;;;8.15;4.40;;;;;;;;;;6186116;23;19997;-75
2023/03/10 03:10:58;;;;;;;8.07;4.78;;;;;;;;;;6186391;23;20055;-75
2023/03/10 03:13:24;;;;;;;9.60;4.75;;;;;;;;;;6186115;23;20001;-75
2023/03/10 03:15:51;;;;;;;11.80;5.50;;;;;;;;;;6186414;23;19997;-75
2023/03/10 03:18:17;;;;;;;9.20;5.18;;;;;;;;;;6186009;23;20005;-75
2023/03/10 03:20:43;;;;;;;10.93;5.20;;;;;;;;;;6185916;23;20001;-75
2023/03/10 03:23:09;;;;;;;9.98;5.07;;;;;;;;;;6185829;23;20056;-75
2023/03/10 03:25:37;;;;;;;10.52;5.97;;;;;;;;;;6185901;23;20008;-75
2023/03/10 03:28:04;;;;;;;10.68;5.82;;;;;;;;;;6185893;23;19997;-75
2023/03/10 03:30:31;;;;;;;12.45;5.70;;;;;;;;;;6185930;23;19997;-75
2023/03/10 03:32:57;;;;;;;11.95;6.07;;;;;;;;;;6185769;23;20008;-75
2023/03/10 03:35:28;;;;;;;9.07;5.05;;;;;;;;;;6185816;23;20001;-75
2023/03/10 03:37:55;;;;;;;8.88;5.05;;;;;;;;;;6185743;23;20466;-75
2023/03/10 03:40:21;;;;;;;9.02;4.85;;;;;;;;;;6185853;23;20522;-75
2023/03/10 03:42:48;;;;;;;12.40;5.82;;;;;;;;;;6185596;23;20009;-75
2023/03/10 03:45:15;;;;;;;9.40;4.72;;;;;;;;;;6185627;23;20375;-75
2023/03/10 03:47:42;;;;;;;12.05;5.95;;;;;;;;;;6185689;23;19997;-75
2023/03/10 03:50:10;;;;;;;12.48;6.82;;;;;;;;;;6185553;23;20080;-75
2023/03/10 03:52:36;;;;;;;13.35;6.93;;;;;;;;;;6185685;23;20001;-75
2023/03/10 03:55:03;;;;;;;13.38;6.53;;;;;;;;;;6185628;23;19997;-75
2023/03/10 03:57:29;;;;;;;16.70;6.05;;;;;;;;;;6185625;23;20043;-75
2023/03/10 03:59:55;;;;;;;12.55;5.82;;;;;;;;;;6185548;23;20039;-76
2023/03/10 04:02:21;;;;;;;13.43;7.63;;;;;;;;;;6159099;23;20059;-75
2023/03/10 04:04:47;;;;;;;12.65;5.90;;;;;;;;;;6185400;23;20442;-75
2023/03/10 04:07:13;;;;;;;7.75;4.97;;;;;;;;;;6185874;23;20080;-76
2023/03/10 04:09:40;;;;;;;11.65;5.32;;;;;;;;;;6185505;23;20032;-75
2023/03/10 04:12:07;;;;;;;13.10;6.68;;;;;;;;;;6185479;23;20025;-76
2023/03/10 04:14:34;;;;;;;17.17;9.23;;;;;;;;;;6185725;23;20000;-76
2023/03/10 04:17:00;;;;;;;13.93;6.85;;;;;;;;;;6185575;23;20080;-76
2023/03/10 04:19:26;;;;;;;9.77;5.53;;;;;;;;;;6185435;23;19998;-76
2023/03/10 04:21:52;;;;;;;11.27;5.68;;;;;;;;;;6185389;23;20068;-76
2023/03/10 04:24:18;;;;;;;14.43;7.40;;;;;;;;;;6185563;23;20009;-76
2023/03/10 04:26:45;;;;;;;16.02;7.18;;;;;;;;;;6185529;23;20001;-76
2023/03/10 04:29:11;;;;;;;18.33;8.85;;;;;;;;;;6185917;23;19997;-77
2023/03/10 04:31:37;;;;;;;14.63;7.88;;;;;;;;;;6185604;23;20075;-77
2023/03/10 04:34:03;;;;;;;17.05;9.52;;;;;;;;;;6185548;23;20358;-77
2023/03/10 04:36:29;;;;;;;13.70;6.80;;;;;;;;;;6185854;23;20004;-77
2023/03/10 04:38:56;;;;;;;15.80;7.90;;;;;;;;;;6186143;23;20431;-77
2023/03/10 04:41:22;;;;;;;16.60;8.65;;;;;;;;;;6186444;23;20008;-78
2023/03/10 04:43:48;;;;;;;17.98;8.65;;;;;;;;;;6186340;23;20072;-78
2023/03/10 04:46:14;;;;;;;20.38;8.93;;;;;;;;;;6186271;23;20082;-78
2023/03/10 04:48:39;;;;;;;16.08;8.00;;;;;;;;;;6186235;23;19993;-77
2023/03/10 04:51:07;;;;;;;17.92;9.27;;;;;;;;;;6186201;23;20005;-78
2023/03/10 04:53:33;;;;;;;16.88;8.48;;;;;;;;;;6185990;23;20036;-77
2023/03/10 04:56:14;;;;;;;12.05;6.45;;;;;;;;;;6185992;23;20076;-77
2023/03/10 04:58:40;;;;;;;14.35;7.38;;;;;;;;;;6159964;23;20009;-77
2023/03/10 05:01:10;;;;;;;13.43;8.00;;;;;;;;;;6185863;23;20008;-77
2023/03/10 05:03:36;;;;;;;16.70;8.32;;;;;;;;;;6185886;23;20005;-77
2023/03/10 05:06:03;;;;;;;13.07;7.97;;;;;;;;;;6186006;23;20083;-77
2023/03/10 05:08:29;;;;;;;15.05;6.88;;;;;;;;;;6185864;23;20003;-77
2023/03/10 05:10:55;;;;;;;17.05;8.20;;;;;;;;;;6185922;23;20020;-77
2023/03/10 05:13:21;;;;;;;18.15;7.70;;;;;;;;;;6186139;23;20005;-77
2023/03/10 05:15:47;;;;;;;14.52;6.45;;;;;;;;;;6159603;23;20056;-77
2023/03/10 05:18:14;;;;;;;15.10;6.75;;;;;;;;;;6186270;23;20001;-77
2023/03/10 05:20:40;;;;;;;13.52;7.55;;;;;;;;;;6185974;23;19997;-77
2023/03/10 05:23:06;;;;;;;18.40;9.38;;;;;;;;;;6185824;23;20005;-77
2023/03/10 05:25:32;;;;;;;22.60;10.20;;;;;;;;;;6185765;23;20002;-77
2023/03/10 05:27:58;;;;;;;21.40;9.80;;;;;;;;;;6186445;23;20420;-77
2023/03/10 05:30:24;;;;;;;17.25;8.10;;;;;;;;;;6189252;23;20007;-77
2023/03/10 05:32:50;;;;;;;15.35;8.40;;;;;;;;;;6190193;23;19993;-77
2023/03/10 05:35:16;;;;;;;12.93;6.55;;;;;;;;;;6188683;23;19997;-77
2023/03/10 05:37:43;;;;;;;16.70;8.13;;;;;;;;;;6189306;23;20363;-77
2023/03/10 05:40:14;;;;;;;16.25;8.00;;;;;;;;;;6188664;23;19997;-77
2023/03/10 05:42:40;;;;;;;15.98;8.80;;;;;;;;;;6187619;23;20116;-77
2023/03/10 05:45:07;;;;;;;16.65;8.95;;;;;;;;;;6186682;23;20005;-77
2023/03/10 05:47:33;;;;;;;12.77;6.80;;;;;;;;;;6185215;23;20004;-77
2023/03/10 05:50:00;;;;;;;17.25;9.10;;;;;;;;;;6185343;23;20323;-77
2023/03/10 05:52:26;;;;;;;17.95;7.55;;;;;;;;;;6185221;23;20005;-77
2023/03/10 05:54:52;;;;;;;25.95;9.82;;;;;;;;;;6185330;23;20008;-77
2023/03/10 05:57:18;;;;;;;22.73;9.52;;;;;;;;;;6184560;23;20088;-77
2023/03/10 05:59:47;;;;;;;18.13;7.78;;;;;;;;;;6185278;23;20005;-80
2023/03/10 06:02:13;;;;;;;19.80;9.40;;;;;;;;;;6185447;23;19997;-77
2023/03/10 06:04:39;;;;;;;14.35;7.30;;;;;;;;;;6185095;23;20006;-77
2023/03/10 06:07:05;;;;;;;22.13;10.40;;;;;;;;;;6185996;23;20001;-77
2023/03/10 06:09:32;;;;;;;26.67;12.88;;;;;;;;;;6186932;23;19997;-77
2023/03/10 06:11:58;;;;;;;18.63;8.82;;;;;;;;;;6186774;23;20408;-77
2023/03/10 06:14:24;;;;;;;20.08;9.75;;;;;;;;;;6186954;23;19997;-77
2023/03/10 06:16:50;;;;;;;18.58;9.40;;;;;;;;;;6186839;23;20054;-77
2023/03/10 06:19:17;;;;;;;24.90;12.10;;;;;;;;;;6186702;23;20028;-77
2023/03/10 06:21:50;;;;;;;21.83;10.40;;;;;;;;;;6186510;23;19997;-77
2023/03/10 06:24:16;;;;;;;25.67;12.02;;;;;;;;;;6186772;23;20008;-77
2023/03/10 06:26:42;;;;;;;14.05;7.63;;;;;;;;;;6186524;23;20116;-77
2023/03/10 06:29:09;;;;;;;25.40;12.30;;;;;;;;;;6186392;23;20539;-77
2023/03/10 06:31:35;;;;;;;25.63;11.20;;;;;;;;;;6186162;23;19997;-77
2023/03/10 06:34:01;;;;;;;20.25;10.82;;;;;;;;;;6186246;23;20008;-76
2023/03/10 06:36:30;;;;;;;21.98;10.85;;;;;;;;;;6186497;23;20474;-76
2023/03/10 06:38:56;;;;;;;20.48;9.82;;;;;;;;;;6186535;23;20084;-76
2023/03/10 06:41:22;;;;;;;17.38;7.72;;;;;;;;;;6186095;23;20128;-76
2023/03/10 06:43:48;;;;;;;16.27;7.15;;;;;;;;;;6186279;23;20005;-76
2023/03/10 06:46:15;;;;;;;15.73;7.97;;;;;;;;;;6186136;23;20008;-76
2023/03/10 06:48:41;;;;;;;18.83;10.40;;;;;;;;;;6186511;23;20003;-76
2023/03/10 06:51:09;;;;;;;14.18;7.10;;;;;;;;;;6186128;23;20001;-76
2023/03/10 06:53:35;;;;;;;22.40;10.77;;;;;;;;;;6186207;23;20001;-76
2023/03/10 06:56:01;;;;;;;15.98;8.45;;;;;;;;;;6186312;23;20001;-77
2023/03/10 06:58:28;;;;;;;16.35;8.05;;;;;;;;;;6186550;23;20028;-76
2023/03/10 07:00:54;;;;;;;18.63;7.97;;;;;;;;;;6186168;23;19997;-77
2023/03/10 07:03:20;;;;;;;16.05;7.43;;;;;;;;;;6186472;23;20312;-77
2023/03/10 07:05:47;;;;;;;14.43;6.93;;;;;;;;;;6186584;23;20012;-77
2023/03/10 07:08:13;;;;;;;19.75;7.20;;;;;;;;;;6187048;23;20024;-77
2023/03/10 07:10:39;;;;;;;23.02;11.75;;;;;;;;;;6186178;23;19997;-76
2023/03/10 07:13:05;;;;;;;19.33;9.07;;;;;;;;;;6186486;23;20052;-77
2023/03/10 07:15:31;;;;;;;13.48;6.82;;;;;;;;;;6186435;23;20005;-76
2023/03/10 07:17:57;;;;;;;18.20;9.75;;;;;;;;;;6185720;23;20440;-77
2023/03/10 07:20:23;;;;;;;18.35;8.82;;;;;;;;;;6186496;23;20450;-77
2023/03/10 07:22:50;;;;;;;19.52;10.35;;;;;;;;;;6186313;23;20056;-77
2023/03/10 07:25:16;;;;;;;13.40;6.30;;;;;;;;;;6185875;23;20052;-77
2023/03/10 07:27:42;;;;;;;11.93;6.93;;;;;;;;;;6185802;23;20052;-77
2023/03/10 07:30:08;;;;;;;17.55;9.30;;;;;;;;;;6186040;23;20005;-77
2023/03/10 07:32:34;;;;;;;14.10;6.82;;;;;;;;;;6185779;23;20430;-77
2023/03/10 07:35:01;;;;;;;16.95;8.27;;;;;;;;;;6185811;23;20028;-76
2023/03/10 07:37:27;;;;;;;20.10;9.73;;;;;;;;;;6185925;23;20001;-76
2023/03/10 07:39:56;;;;;;;15.80;7.38;;;;;;;;;;6185847;23;20589;-77
2023/03/10 07:42:22;;;;;;;18.02;8.20;;;;;;;;;;6185725;23;19997;-76
2023/03/10 07:44:48;;;;;;;14.00;7.05;;;;;;;;;;6186183;23;20009;-76
2023/03/10 07:47:20;;;;;;;12.93;6.20;;;;;;;;;;6185697;23;20011;-77
2023/03/10 07:49:47;;;;;;;9.75;5.43;;;;;;;;;;6185988;23;20492;-77
2023/03/10 07:52:17;;;;;;;11.05;6.32;;;;;;;;;;6186073;23;20021;-77
2023/03/10 07:54:43;;;;;;;10.75;6.32;;;;;;;;;;6186140;23;20004;-77
2023/03/10 07:57:10;;;;;;;12.27;5.88;;;;;;;;;;6185312;23;20088;-77
2023/03/10 07:59:36;;;;;;;13.20;6.00;;;;;;;;;;6185711;23;20004;-77
2023/03/10 08:02:11;;;;;;;11.93;5.65;;;;;;;;;;6185813;23;20017;-77
2023/03/10 08:04:37;;;;;;;12.48;6.90;;;;;;;;;;6185972;23;20009;-77
2023/03/10 08:07:03;;;;;;;6.60;4.05;;;;;;;;;;6185648;23;20375;-77
2023/03/10 08:09:29;;;;;;;13.75;5.97;;;;;;;;;;6185548;23;20068;-77
2023/03/10 08:11:57;;;;;;;10.57;6.05;;;;;;;;;;6185511;23;19997;-77
2023/03/10 08:14:23;;;;;;;10.57;6.45;;;;;;;;;;6185485;23;20032;-77
2023/03/10 08:16:50;;;;;;;12.85;6.32;;;;;;;;;;6185293;23;20507;-76
2023/03/10 08:19:16;;;;;;;10.60;5.80;;;;;;;;;;6185517;23;20008;-76
2023/03/10 08:21:42;;;;;;;13.20;5.47;;;;;;;;;;6185352;23;19999;-77
2023/03/10 08:24:08;;;;;;;15.55;6.72;;;;;;;;;;6185292;23;20009;-77
2023/03/10 08:26:34;;;;;;;11.82;6.07;;;;;;;;;;6185458;23;20001;-77
2023/03/10 08:29:01;;;;;;;12.80;7.15;;;;;;;;;;6185420;23;20013;-76
2023/03/10 08:31:27;;;;;;;15.38;7.65;;;;;;;;;;6184922;23;20360;-77
2023/03/10 08:33:58;;;;;;;12.70;6.50;;;;;;;;;;6185253;23;20009;-77
2023/03/10 08:36:25;;;;;;;16.15;7.80;;;;;;;;;;6185375;23;20439;-76
2023/03/10 08:38:52;;;;;;;13.95;8.10;;;;;;;;;;6185314;23;19997;-77
2023/03/10 08:41:23;;;;;;;14.35;7.63;;;;;;;;;;6185621;23;20469;-77
2023/03/10 08:43:50;;;;;;;11.05;6.28;;;;;;;;;;6184915;23;20412;-76
2023/03/10 08:46:17;;;;;;;15.32;9.77;;;;;;;;;;6185335;23;20006;-76
2023/03/10 08:48:43;;;;;;;18.98;8.20;;;;;;;;;;6184597;23;20052;-77
2023/03/10 08:51:10;;;;;;;14.25;6.28;;;;;;;;;;6185389;23;20431;-77
2023/03/10 08:53:36;;;;;;;20.63;11.90;;;;;;;;;;6185018;23;20001;-76
2023/03/10 08:56:03;;;;;;;19.67;10.68;;;;;;;;;;6185009;23;20001;-76
2023/03/10 08:58:29;;;;;;;12.68;7.15;;;;;;;;;;6184779;23;20020;-76
2023/03/10 09:00:55;;;;;;;17.10;9.00;;;;;;;;;;6184461;23;20406;-76
2023/03/10 09:03:21;;;;;;;14.93;8.68;;;;;;;;;;6184513;23;20001;-76
2023/03/10 09:05:47;;;;;;;16.08;8.02;;;;;;;;;;6185225;23;20059;-76
2023/03/10 09:08:13;;;;;;;20.52;11.05;;;;;;;;;;6183983;23;20001;-77
2023/03/10 09:10:40;;;;;;;17.00;7.35;;;;;;;;;;6184413;23;20077;-76
2023/03/10 09:13:06;;;;;;;14.75;7.90;;;;;;;;;;6184769;23;20011;-76
2023/03/10 09:15:33;;;;;;;17.98;8.13;;;;;;;;;;6184636;23;19997;-76
2023/03/10 09:18:00;;;;;;;18.65;8.48;;;;;;;;;;6184676;23;20001;-76
2023/03/10 09:20:26;;;;;;;17.88;8.43;;;;;;;;;;6184554;23;19997;-76
2023/03/10 09:22:53;;;;;;;18.27;8.98;;;;;;;;;;6183185;23;20007;-76
2023/03/10 09:25:20;;;;;;;14.98;8.45;;;;;;;;;;6183840;23;20420;-76
2023/03/10 09:27:46;;;;;;;17.30;10.18;;;;;;;;;;6184140;23;19993;-76
2023/03/10 09:30:12;;;;;;;16.95;8.98;;;;;;;;;;6183284;23;20080;-76
2023/03/10 09:32:38;;;;;;;12.57;7.07;;;;;;;;;;6183860;23;20055;-76
2023/03/10 09:35:04;;;;;;;14.65;7.22;;;;;;;;;;6183888;23;20001;-75
2023/03/10 09:37:31;;;;;;;12.48;5.03;;;;;;;;;;6184362;23;20005;-76
2023/03/10 09:39:57;;;;;;;14.30;6.05;;;;;;;;;;6185238;23;20008;-76
2023/03/10 09:42:29;;;;;;;16.33;7.95;;;;;;;;;;6185829;23;20012;-76
2023/03/10 09:45:01;;;;;;;16.15;8.13;;;;;;;;;;6186626;23;20003;-76
2023/03/10 09:47:45;;;;;;;12.57;5.88;;;;;;;;;;6186606;23;20063;-76
2023/03/10 09:50:22;;;;;;;16.13;7.80;;;;;;;;;;6186574;23;20001;-76
2023/03/10 09:52:57;;;;;;;10.48;6.25;;;;;;;;;;6186607;23;20001;-76
2023/03/10 09:55:43;;;;;;;17.20;8.82;;;;;;;;;;6186550;23;19997;-76
2023/03/10 09:58:15;;;;;;;10.75;5.43;;;;;;;;;;6186466;23;20572;-76
2023/03/10 10:00:42;;;;;;;14.50;8.38;;;;;;;;;;6186585;23;20036;-77
2023/03/10 10:03:22;;;;;;;13.68;6.93;;;;;;;;;;6186473;23;20032;-77
2023/03/10 10:05:49;;;;;;;12.73;5.93;;;;;;;;;;6186450;23;20103;-77
2023/03/10 10:08:31;;;;;;;15.38;8.25;;;;;;;;;;6186307;23;19997;-77
2023/03/10 10:10:58;;;;;;;13.68;6.55;;;;;;;;;;6186373;23;20324;-77
2023/03/10 10:13:26;;;;;;;16.50;9.80;;;;;;;;;;6186620;23;20013;-77
2023/03/10 10:15:58;;;;;;;17.05;8.95;;;;;;;;;;6186417;23;19997;-77
2023/03/10 10:18:30;;;;;;;15.45;8.23;;;;;;;;;;6186344;23;20001;-77
2023/03/10 10:21:01;;;;;;;17.35;8.07;;;;;;;;;;6186091;23;20445;-76
2023/03/10 10:23:46;;;;;;;13.70;7.05;;;;;;;;;;6186188;23;20009;-76
2023/03/10 10:26:13;;;;;;;15.95;7.85;;;;;;;;;;6186191;23;20007;-76
2023/03/10 10:28:41;;;;;;;13.85;7.18;;;;;;;;;;6186198;23;20367;-76
2023/03/10 10:31:14;;;;;;;16.20;9.82;;;;;;;;;;6186239;23;20327;-76
2023/03/10 10:33:52;;;;;;;14.20;7.05;;;;;;;;;;6159533;23;20051;-76
2023/03/10 10:36:18;;;;;;;15.25;7.50;;;;;;;;;;6186390;23;20430;-76
2023/03/10 10:38:54;;;;;;;11.77;6.13;;;;;;;;;;6186048;23;20312;-76
2023/03/10 10:41:26;;;;;;;12.75;7.40;;;;;;;;;;6185955;23;20008;-76
2023/03/10 10:43:52;;;;;;;13.65;6.88;;;;;;;;;;6159302;23;20052;-76
2023/03/10 10:46:24;;;;;;;17.00;9.38;;;;;;;;;;6185982;23;20027;-76
2023/03/10 10:48:59;;;;;;;13.23;7.13;;;;;;;;;;6186329;23;20001;-77
2023/03/10 10:51:27;;;;;;;13.07;6.30;;;;;;;;;;6185903;23;20075;-76
2023/03/10 10:53:57;;;;;;;15.32;6.72;;;;;;;;;;6185641;23;20001;-76
2023/03/10 10:56:24;;;;;;;11.85;6.50;;;;;;;;;;6186043;23;19997;-76
2023/03/10 10:59:08;;;;;;;12.50;7.63;;;;;;;;;;6185812;23;20048;-77
2023/03/10 11:01:55;;;;;;;11.75;6.63;;;;;;;;;;6185913;23;20001;-77
2023/03/10 11:04:22;;;;;;;13.63;6.40;;;;;;;;;;6185779;23;20418;-76
2023/03/10 11:06:48;;;;;;;11.23;5.35;;;;;;;;;;6185959;23;20004;-77
2023/03/10 11:09:19;;;;;;;18.77;9.00;;;;;;;;;;6185917;23;20005;-76
2023/03/10 11:11:50;;;;;;;12.85;6.00;;;;;;;;;;6186003;23;20024;-77
2023/03/10 11:14:28;;;;;;;16.35;6.82;;;;;;;;;;6185875;23;20412;-77
2023/03/10 11:17:05;;;;;;;13.55;5.40;;;;;;;;;;6159403;23;20051;-77
2023/03/10 11:19:40;;;;;;;9.45;5.47;;;;;;;;;;6185962;23;20318;-76
2023/03/10 11:22:13;;;;;;;8.88;4.75;;;;;;;;;;6185684;23;19997;-77
2023/03/10 11:24:42;;;;;;;12.00;5.30;;;;;;;;;;6185959;23;20015;-77
2023/03/10 11:27:23;;;;;;;8.70;3.63;;;;;;;;;;6186415;23;20439;-78
2023/03/10 11:29:56;;;;;;;11.90;5.90;;;;;;;;;;6186873;23;20071;-78
2023/03/10 11:32:22;;;;;;;10.48;4.65;;;;;;;;;;6186238;23;20080;-77
2023/03/10 11:34:55;;;;;;;11.30;5.40;;;;;;;;;;6186245;23;20107;-78
2023/03/10 11:37:23;;;;;;;10.10;5.35;;;;;;;;;;6186455;23;19997;-78
2023/03/10 11:39:49;;;;;;;10.63;4.45;;;;;;;;;;6187616;23;20075;-78
2023/03/10 11:42:38;;;;;;;14.15;6.35;;;;;;;;;;6186880;23;20005;-78
2023/03/10 11:45:10;;;;;;;11.77;6.57;;;;;;;;;;6186580;23;20005;-77
2023/03/10 11:47:47;;;;;;;8.27;4.03;;;;;;;;;;6187021;23;19997;-78
2023/03/10 11:50:20;;;;;;;13.18;5.88;;;;;;;;;;6186748;23;20032;-78
2023/03/10 11:52:47;;;;;;;13.20;5.93;;;;;;;;;;6186683;23;19996;-78
2023/03/10 11:55:18;;;;;;;11.23;5.35;;;;;;;;;;6186521;23;20009;-78
2023/03/10 11:57:47;;;;;;;10.48;4.43;;;;;;;;;;6186302;23;20041;-78
2023/03/10 12:00:31;;;;;;;9.85;5.60;;;;;;;;;;6186347;23;20020;-78
2023/03/10 12:02:57;;;;;;;13.73;7.38;;;;;;;;;;6186180;23;20423;-78
2023/03/10 12:05:24;;;;;;;11.85;6.38;;;;;;;;;;6186148;23;20075;-78
2023/03/10 12:07:57;;;;;;;11.10;4.53;;;;;;;;;;6186356;23;20080;-78
2023/03/10 12:10:25;;;;;;;8.68;4.25;;;;;;;;;;6186135;23;20076;-78
2023/03/10 12:12:52;;;;;;;15.70;7.32;;;;;;;;;;6159606;23;20059;-78
2023/03/10 12:15:18;;;;;;;14.07;7.50;;;;;;;;;;6186331;23;20443;-78
2023/03/10 12:17:45;;;;;;;6.57;3.88;;;;;;;;;;6186512;23;20312;-78
2023/03/10 12:20:17;;;;;;;7.30;3.78;;;;;;;;;;6186344;23;20502;-78
2023/03/10 12:22:45;;;;;;;10.20;5.15;;;;;;;;;;6186682;23;20131;-78
2023/03/10 12:25:31;;;;;;;9.82;5.05;;;;;;;;;;6186822;23;20001;-78
2023/03/10 12:28:15;;;;;;;7.55;4.57;;;;;;;;;;6187399;23;20076;-78
2023/03/10 12:30:46;;;;;;;9.43;4.57;;;;;;;;;;6189150;23;20040;-78
2023/03/10 12:33:30;;;;;;;6.18;2.88;;;;;;;;;;6187506;23;20020;-78
2023/03/10 12:36:02;;;;;;;13.75;5.80;;;;;;;;;;6186527;23;20076;-78
2023/03/10 12:38:30;;;;;;;7.68;3.38;;;;;;;;;;6186401;23;20062;-78
2023/03/10 12:40:56;;;;;;;8.20;4.13;;;;;;;;;;6186264;23;20004;-78
2023/03/10 12:43:38;;;;;;;13.32;5.80;;;;;;;;;;6159470;23;20005;-78
2023/03/10 12:46:10;;;;;;;10.88;4.95;;;;;;;;;;6186764;23;19997;-78
2023/03/10 12:48:39;;;;;;;9.68;4.72;;;;;;;;;;6186647;23;20359;-77
2023/03/10 12:51:10;;;;;;;10.43;4.57;;;;;;;;;;6189416;23;20000;-78
2023/03/10 12:53:45;;;;;;;8.07;3.55;;;;;;;;;;6188007;23;20008;-77
2023/03/10 12:56:43;;;;;;;6.85;2.92;;;;;;;;;;6185131;23;20016;-77
2023/03/10 12:59:30;;;;;;;12.45;5.07;;;;;;;;;;6122060;23;20155;-78
2023/03/10 13:01:57;;;;;;;6.25;3.45;;;;;;;;;;6187643;23;20068;-78
2023/03/10 13:04:24;;;;;;;8.75;4.47;;;;;;;;;;6187204;23;20024;-78
2023/03/10 13:06:55;;;;;;;5.97;3.17;;;;;;;;;;6188941;23;20001;-78
2023/03/10 13:09:26;;;;;;;6.88;3.40;;;;;;;;;;6186410;23;20012;-78
2023/03/10 13:11:55;;;;;;;7.00;3.67;;;;;;;;;;6185924;23;20076;-78
2023/03/10 13:14:22;;;;;;;11.82;6.38;;;;;;;;;;6186061;23;20001;-78
2023/03/10 13:16:55;;;;;;;6.07;3.38;;;;;;;;;;6186227;23;20002;-78
2023/03/10 13:19:22;;;;;;;8.77;4.57;;;;;;;;;;6160409;23;20047;-78
2023/03/10 13:21:48;;;;;;;8.40;4.13;;;;;;;;;;6189755;23;19997;-78
2023/03/10 13:24:43;;;;;;;7.85;3.08;;;;;;;;;;6189377;23;20001;-78
2023/03/10 13:27:12;;;;;;;10.98;5.13;;;;;;;;;;6186155;23;20496;-78
2023/03/10 13:29:38;;;;;;;6.63;2.60;;;;;;;;;;6187369;23;20039;-78
2023/03/10 13:32:04;;;;;;;4.88;2.20;;;;;;;;;;6190932;23;20076;-78
2023/03/10 13:34:31;;;;;;;4.57;2.38;;;;;;;;;;6186836;23;19997;-79
2023/03/10 13:37:10;;;;;;;5.18;2.45;;;;;;;;;;6187743;23;19997;-78
2023/03/10 13:39:36;;;;;;;2.83;2.17;;;;;;;;;;6188845;23;20005;-78
2023/03/10 13:42:03;;;;;;;4.35;2.65;;;;;;;;;;6188752;23;20410;-78
2023/03/10 13:44:48;;;;;;;3.60;1.85;;;;;;;;;;6188690;23;20015;-79
2023/03/10 13:47:24;;;;;;;6.15;3.30;;;;;;;;;;6190881;23;20002;-79
2023/03/10 13:49:52;;;;;;;8.27;4.35;;;;;;;;;;6191395;23;20068;-79
2023/03/10 13:52:23;;;;;;;2.28;1.13;;;;;;;;;;6189029;23;19997;-79
2023/03/10 13:54:49;;;;;;;4.60;2.00;;;;;;;;;;6191858;23;20359;-79
2023/03/10 13:57:18;;;;;;;3.50;1.08;;;;;;;;;;6189563;23;20013;-79
2023/03/10 13:59:45;;;;;;;2.38;1.55;;;;;;;;;;6189910;23;20095;-79
2023/03/10 14:02:25;;;;;;;2.78;1.58;;;;;;;;;;6189237;23;20051;-78
2023/03/10 14:04:52;;;;;;;1.02;0.90;;;;;;;;;;6187605;23;20430;-79
2023/03/10 14:07:26;;;;;;;2.28;0.98;;;;;;;;;;6189025;23;19997;-79
2023/03/10 14:10:04;;;;;;;1.95;1.27;;;;;;;;;;6190571;23;20029;-79
2023/03/10 14:12:56;;;;;;;3.72;1.15;;;;;;;;;;6189056;23;20005;-79
2023/03/10 14:15:22;;;;;;;3.08;1.63;;;;;;;;;;6156389;23;20009;-79
2023/03/10 14:18:12;;;;;;;2.80;1.70;;;;;;;;;;6189505;23;20051;-79
2023/03/10 14:20:41;;;;;;;1.88;1.70;;;;;;;;;;6186822;23;20008;-79
2023/03/10 14:23:20;;;;;;;2.33;1.75;;;;;;;;;;6187768;23;20008;-79
2023/03/10 14:25:46;;;;;;;6.07;2.40;;;;;;;;;;6189823;23;20044;-80
2023/03/10 14:28:14;;;;;;;6.00;2.33;;;;;;;;;;6189739;23;20007;-79
2023/03/10 14:30:42;;;;;;;5.28;2.25;;;;;;;;;;6189202;23;20004;-79
2023/03/10 14:33:12;;;;;;;5.63;3.28;;;;;;;;;;6190020;23;20027;-80
2023/03/10 14:35:38;;;;;;;6.03;1.83;;;;;;;;;;6193480;23;20055;-79
2023/03/10 14:38:04;;;;;;;3.45;2.00;;;;;;;;;;6190499;23;20056;-80
2023/03/10 14:40:32;;;;;;;4.53;2.15;;;;;;;;;;6189274;23;20021;-79